sensor_id;sensor_type;location;lat;lon;timestamp;P1;durP1;ratioP1;P2;durP2;ratioP2
62535;SDS011;63050;47.514;18.920;2023-05-29T00:01:53;4.80;;;3.40;;
62535;SDS011;63050;47.514;18.920;2023-05-29T00:06:55;6.50;;;3.20;;
62535;SDS011;63050;47.514;18.920;2023-05-29T00:11:56;5.20;;;3.00;;
62535;SDS011;63050;47.514;18.920;2023-05-29T00:16:57;4.50;;;3.40;;
62535;SDS011;63050;47.514;18.920;2023-05-29T00:21:59;4.60;;;3.00;;
62535;SDS011;63050;47.514;18.920;2023-05-29T00:27:01;5.30;;;3.20;;
62535;SDS011;63050;47.514;18.920;2023-05-29T00:32:03;6.10;;;3.20;;
62535;SDS011;63050;47.514;18.920;2023-05-29T00:37:06;4.80;;;2.90;;
62535;SDS011;63050;47.514;18.920;2023-05-29T00:42:09;5.50;;;3.20;;
62535;SDS011;63050;47.514;18.920;2023-05-29T00:47:10;4.90;;;3.20;;
62535;SDS011;63050;47.514;18.920;2023-05-29T00:52:12;7.50;;;3.60;;
62535;SDS011;63050;47.514;18.920;2023-05-29T00:57:13;5.20;;;3.40;;
62535;SDS011;63050;47.514;18.920;2023-05-29T01:02:15;4.30;;;3.40;;
62535;SDS011;63050;47.514;18.920;2023-05-29T01:07:17;4.30;;;3.10;;
62535;SDS011;63050;47.514;18.920;2023-05-29T01:12:23;4.10;;;3.20;;
62535;SDS011;63050;47.514;18.920;2023-05-29T01:18:06;5.70;;;3.00;;
62535;SDS011;63050;47.514;18.920;2023-05-29T01:23:33;4.30;;;3.00;;
62535;SDS011;63050;47.514;18.920;2023-05-29T01:28:52;5.60;;;3.10;;
62535;SDS011;63050;47.514;18.920;2023-05-29T01:33:57;4.20;;;3.00;;
62535;SDS011;63050;47.514;18.920;2023-05-29T01:39:01;4.20;;;3.20;;
62535;SDS011;63050;47.514;18.920;2023-05-29T01:44:05;5.40;;;3.30;;
62535;SDS011;63050;47.514;18.920;2023-05-29T01:49:09;4.30;;;3.00;;
62535;SDS011;63050;47.514;18.920;2023-05-29T01:54:11;5.00;;;3.30;;
62535;SDS011;63050;47.514;18.920;2023-05-29T01:59:13;6.10;;;3.20;;
62535;SDS011;63050;47.514;18.920;2023-05-29T02:04:14;5.90;;;3.50;;
62535;SDS011;63050;47.514;18.920;2023-05-29T02:09:16;3.50;;;3.00;;
62535;SDS011;63050;47.514;18.920;2023-05-29T02:14:18;5.10;;;3.60;;
62535;SDS011;63050;47.514;18.920;2023-05-29T02:19:20;4.00;;;3.10;;
62535;SDS011;63050;47.514;18.920;2023-05-29T02:24:22;4.20;;;3.50;;
62535;SDS011;63050;47.514;18.920;2023-05-29T02:29:23;4.40;;;3.50;;
62535;SDS011;63050;47.514;18.920;2023-05-29T02:34:27;5.30;;;3.30;;
62535;SDS011;63050;47.514;18.920;2023-05-29T02:39:30;5.30;;;3.50;;
62535;SDS011;63050;47.514;18.920;2023-05-29T02:44:31;6.10;;;4.00;;
62535;SDS011;63050;47.514;18.920;2023-05-29T02:49:33;5.30;;;3.60;;
62535;SDS011;63050;47.514;18.920;2023-05-29T02:54:34;5.90;;;4.10;;
62535;SDS011;63050;47.514;18.920;2023-05-29T02:59:38;7.80;;;4.30;;
62535;SDS011;63050;47.514;18.920;2023-05-29T03:04:40;5.30;;;3.50;;
62535;SDS011;63050;47.514;18.920;2023-05-29T03:09:41;6.50;;;4.00;;
62535;SDS011;63050;47.514;18.920;2023-05-29T03:14:44;4.70;;;3.60;;
62535;SDS011;63050;47.514;18.920;2023-05-29T03:19:46;5.80;;;3.90;;
62535;SDS011;63050;47.514;18.920;2023-05-29T03:24:48;6.90;;;4.10;;
62535;SDS011;63050;47.514;18.920;2023-05-29T03:29:49;6.70;;;4.00;;
62535;SDS011;63050;47.514;18.920;2023-05-29T03:34:53;6.40;;;4.30;;
62535;SDS011;63050;47.514;18.920;2023-05-29T03:39:56;6.20;;;4.60;;
62535;SDS011;63050;47.514;18.920;2023-05-29T03:44:58;4.30;;;3.90;;
62535;SDS011;63050;47.514;18.920;2023-05-29T03:50:00;6.40;;;4.10;;
62535;SDS011;63050;47.514;18.920;2023-05-29T03:55:08;5.70;;;4.50;;
62535;SDS011;63050;47.514;18.920;2023-05-29T04:00:11;8.00;;;4.60;;
62535;SDS011;63050;47.514;18.920;2023-05-29T04:05:20;6.40;;;4.10;;
62535;SDS011;63050;47.514;18.920;2023-05-29T04:10:21;5.70;;;4.40;;
62535;SDS011;63050;47.514;18.920;2023-05-29T04:15:24;6.40;;;4.90;;
62535;SDS011;63050;47.514;18.920;2023-05-29T04:20:25;6.50;;;4.40;;
62535;SDS011;63050;47.514;18.920;2023-05-29T04:25:27;6.40;;;4.10;;
62535;SDS011;63050;47.514;18.920;2023-05-29T04:30:29;7.20;;;4.40;;
62535;SDS011;63050;47.514;18.920;2023-05-29T04:35:33;6.60;;;4.30;;
62535;SDS011;63050;47.514;18.920;2023-05-29T04:40:38;5.20;;;4.30;;
62535;SDS011;63050;47.514;18.920;2023-05-29T04:45:41;12.00;;;4.30;;
62535;SDS011;63050;47.514;18.920;2023-05-29T04:50:43;7.60;;;3.90;;
62535;SDS011;63050;47.514;18.920;2023-05-29T04:55:46;6.60;;;4.10;;
62535;SDS011;63050;47.514;18.920;2023-05-29T05:00:48;7.20;;;4.20;;
62535;SDS011;63050;47.514;18.920;2023-05-29T05:05:50;7.80;;;4.50;;
62535;SDS011;63050;47.514;18.920;2023-05-29T05:10:53;5.80;;;4.20;;
62535;SDS011;63050;47.514;18.920;2023-05-29T05:15:56;7.70;;;4.30;;
62535;SDS011;63050;47.514;18.920;2023-05-29T05:20:57;6.90;;;3.80;;
62535;SDS011;63050;47.514;18.920;2023-05-29T05:25:59;7.90;;;4.50;;
62535;SDS011;63050;47.514;18.920;2023-05-29T05:31:01;7.40;;;4.10;;
62535;SDS011;63050;47.514;18.920;2023-05-29T05:36:04;4.70;;;3.70;;
62535;SDS011;63050;47.514;18.920;2023-05-29T05:41:06;5.40;;;4.20;;
62535;SDS011;63050;47.514;18.920;2023-05-29T05:46:07;4.90;;;3.40;;
62535;SDS011;63050;47.514;18.920;2023-05-29T05:51:10;6.70;;;3.90;;
62535;SDS011;63050;47.514;18.920;2023-05-29T05:56:12;8.10;;;4.70;;
62535;SDS011;63050;47.514;18.920;2023-05-29T06:01:13;6.80;;;3.90;;
62535;SDS011;63050;47.514;18.920;2023-05-29T06:06:15;6.90;;;4.20;;
62535;SDS011;63050;47.514;18.920;2023-05-29T06:11:18;6.50;;;4.00;;
62535;SDS011;63050;47.514;18.920;2023-05-29T06:16:20;6.30;;;3.50;;
62535;SDS011;63050;47.514;18.920;2023-05-29T06:21:22;7.80;;;3.90;;
62535;SDS011;63050;47.514;18.920;2023-05-29T06:26:28;8.70;;;4.10;;
62535;SDS011;63050;47.514;18.920;2023-05-29T06:31:30;5.10;;;3.80;;
62535;SDS011;63050;47.514;18.920;2023-05-29T06:36:33;7.50;;;4.10;;
62535;SDS011;63050;47.514;18.920;2023-05-29T06:41:36;9.30;;;3.90;;
62535;SDS011;63050;47.514;18.920;2023-05-29T06:46:37;7.30;;;3.80;;
62535;SDS011;63050;47.514;18.920;2023-05-29T06:51:38;8.00;;;3.90;;
62535;SDS011;63050;47.514;18.920;2023-05-29T06:57:08;10.80;;;3.80;;
62535;SDS011;63050;47.514;18.920;2023-05-29T07:02:10;5.70;;;3.90;;
62535;SDS011;63050;47.514;18.920;2023-05-29T07:07:11;6.90;;;3.80;;
62535;SDS011;63050;47.514;18.920;2023-05-29T07:12:13;8.40;;;3.70;;
62535;SDS011;63050;47.514;18.920;2023-05-29T07:17:14;7.30;;;3.40;;
62535;SDS011;63050;47.514;18.920;2023-05-29T07:22:17;9.70;;;4.00;;
62535;SDS011;63050;47.514;18.920;2023-05-29T07:27:18;7.40;;;3.50;;
62535;SDS011;63050;47.514;18.920;2023-05-29T07:32:19;7.40;;;3.60;;
62535;SDS011;63050;47.514;18.920;2023-05-29T07:37:22;8.90;;;3.60;;
62535;SDS011;63050;47.514;18.920;2023-05-29T07:42:25;7.10;;;3.60;;
62535;SDS011;63050;47.514;18.920;2023-05-29T07:47:26;5.80;;;3.30;;
62535;SDS011;63050;47.514;18.920;2023-05-29T07:52:28;13.80;;;4.50;;
62535;SDS011;63050;47.514;18.920;2023-05-29T07:57:31;7.10;;;3.50;;
62535;SDS011;63050;47.514;18.920;2023-05-29T08:02:32;9.00;;;3.80;;
62535;SDS011;63050;47.514;18.920;2023-05-29T08:08:00;8.10;;;3.60;;
62535;SDS011;63050;47.514;18.920;2023-05-29T08:13:02;6.80;;;3.80;;
62535;SDS011;63050;47.514;18.920;2023-05-29T08:18:05;7.60;;;3.70;;
62535;SDS011;63050;47.514;18.920;2023-05-29T08:23:06;12.10;;;4.70;;
62535;SDS011;63050;47.514;18.920;2023-05-29T08:28:07;6.50;;;4.00;;
62535;SDS011;63050;47.514;18.920;2023-05-29T08:33:08;7.10;;;3.90;;
62535;SDS011;63050;47.514;18.920;2023-05-29T08:38:09;10.00;;;4.00;;
62535;SDS011;63050;47.514;18.920;2023-05-29T08:43:20;7.10;;;4.10;;
62535;SDS011;63050;47.514;18.920;2023-05-29T08:48:23;7.80;;;3.80;;
62535;SDS011;63050;47.514;18.920;2023-05-29T08:53:27;7.50;;;3.60;;
62535;SDS011;63050;47.514;18.920;2023-05-29T08:58:29;8.70;;;4.00;;
62535;SDS011;63050;47.514;18.920;2023-05-29T09:03:30;7.20;;;3.90;;
62535;SDS011;63050;47.514;18.920;2023-05-29T09:08:32;6.70;;;3.90;;
62535;SDS011;63050;47.514;18.920;2023-05-29T09:13:34;6.10;;;3.80;;
62535;SDS011;63050;47.514;18.920;2023-05-29T09:18:36;5.90;;;3.50;;
62535;SDS011;63050;47.514;18.920;2023-05-29T09:23:37;7.50;;;3.90;;
62535;SDS011;63050;47.514;18.920;2023-05-29T09:28:38;8.20;;;4.40;;
62535;SDS011;63050;47.514;18.920;2023-05-29T09:33:47;6.70;;;3.70;;
62535;SDS011;63050;47.514;18.920;2023-05-29T09:38:49;5.10;;;3.50;;
62535;SDS011;63050;47.514;18.920;2023-05-29T09:43:52;5.40;;;3.50;;
62535;SDS011;63050;47.514;18.920;2023-05-29T09:48:55;6.50;;;4.10;;
62535;SDS011;63050;47.514;18.920;2023-05-29T09:54:13;8.20;;;3.90;;
62535;SDS011;63050;47.514;18.920;2023-05-29T09:59:17;12.90;;;3.90;;
62535;SDS011;63050;47.514;18.920;2023-05-29T10:04:19;4.70;;;3.40;;
62535;SDS011;63050;47.514;18.920;2023-05-29T10:09:20;10.70;;;4.20;;
62535;SDS011;63050;47.514;18.920;2023-05-29T10:14:22;9.60;;;3.70;;
62535;SDS011;63050;47.514;18.920;2023-05-29T10:19:25;7.70;;;3.90;;
62535;SDS011;63050;47.514;18.920;2023-05-29T10:24:30;6.80;;;3.90;;
62535;SDS011;63050;47.514;18.920;2023-05-29T10:29:36;5.90;;;3.60;;
62535;SDS011;63050;47.514;18.920;2023-05-29T10:34:44;9.00;;;5.40;;
62535;SDS011;63050;47.514;18.920;2023-05-29T10:39:52;8.00;;;4.10;;
62535;SDS011;63050;47.514;18.920;2023-05-29T10:44:54;7.20;;;4.20;;
62535;SDS011;63050;47.514;18.920;2023-05-29T10:50:02;7.50;;;3.70;;
62535;SDS011;63050;47.514;18.920;2023-05-29T10:55:03;12.90;;;4.20;;
62535;SDS011;63050;47.514;18.920;2023-05-29T11:00:05;7.90;;;4.30;;
62535;SDS011;63050;47.514;18.920;2023-05-29T11:05:23;10.90;;;4.30;;
62535;SDS011;63050;47.514;18.920;2023-05-29T11:10:44;8.30;;;4.00;;
62535;SDS011;63050;47.514;18.920;2023-05-29T11:16:03;10.90;;;3.90;;
62535;SDS011;63050;47.514;18.920;2023-05-29T11:26:47;5.40;;;4.10;;
62535;SDS011;63050;47.514;18.920;2023-05-29T11:31:49;7.60;;;3.80;;
62535;SDS011;63050;47.514;18.920;2023-05-29T11:37:01;7.60;;;3.50;;
62535;SDS011;63050;47.514;18.920;2023-05-29T11:42:02;7.40;;;4.30;;
62535;SDS011;63050;47.514;18.920;2023-05-29T11:47:06;8.30;;;4.40;;
62535;SDS011;63050;47.514;18.920;2023-05-29T11:52:11;7.20;;;3.80;;
62535;SDS011;63050;47.514;18.920;2023-05-29T11:57:21;6.60;;;4.10;;
62535;SDS011;63050;47.514;18.920;2023-05-29T12:02:22;7.80;;;3.70;;
62535;SDS011;63050;47.514;18.920;2023-05-29T12:07:25;6.50;;;4.30;;
62535;SDS011;63050;47.514;18.920;2023-05-29T12:12:27;7.10;;;3.50;;
62535;SDS011;63050;47.514;18.920;2023-05-29T12:17:30;8.40;;;4.20;;
62535;SDS011;63050;47.514;18.920;2023-05-29T12:22:38;5.90;;;4.00;;
62535;SDS011;63050;47.514;18.920;2023-05-29T12:27:42;8.00;;;4.20;;
62535;SDS011;63050;47.514;18.920;2023-05-29T12:32:47;4.90;;;3.70;;
62535;SDS011;63050;47.514;18.920;2023-05-29T12:37:54;6.50;;;4.30;;
62535;SDS011;63050;47.514;18.920;2023-05-29T12:43:02;6.10;;;3.80;;
62535;SDS011;63050;47.514;18.920;2023-05-29T12:48:05;5.80;;;4.20;;
62535;SDS011;63050;47.514;18.920;2023-05-29T12:53:08;7.20;;;4.10;;
62535;SDS011;63050;47.514;18.920;2023-05-29T12:58:13;5.00;;;3.90;;
62535;SDS011;63050;47.514;18.920;2023-05-29T13:03:21;6.30;;;3.70;;
62535;SDS011;63050;47.514;18.920;2023-05-29T13:08:25;5.80;;;3.60;;
62535;SDS011;63050;47.514;18.920;2023-05-29T13:13:26;6.00;;;3.80;;
62535;SDS011;63050;47.514;18.920;2023-05-29T13:18:27;5.60;;;3.80;;
62535;SDS011;63050;47.514;18.920;2023-05-29T13:23:28;9.90;;;4.10;;
62535;SDS011;63050;47.514;18.920;2023-05-29T13:28:30;6.60;;;4.00;;
62535;SDS011;63050;47.514;18.920;2023-05-29T13:33:31;4.80;;;3.50;;
62535;SDS011;63050;47.514;18.920;2023-05-29T13:38:32;7.50;;;3.80;;
62535;SDS011;63050;47.514;18.920;2023-05-29T13:43:33;8.40;;;4.20;;
62535;SDS011;63050;47.514;18.920;2023-05-29T13:48:36;6.50;;;4.20;;
62535;SDS011;63050;47.514;18.920;2023-05-29T13:53:38;7.00;;;4.60;;
62535;SDS011;63050;47.514;18.920;2023-05-29T13:58:39;8.50;;;4.30;;
62535;SDS011;63050;47.514;18.920;2023-05-29T14:03:41;9.90;;;4.10;;
62535;SDS011;63050;47.514;18.920;2023-05-29T14:08:42;6.90;;;4.20;;
62535;SDS011;63050;47.514;18.920;2023-05-29T14:13:43;6.70;;;3.80;;
62535;SDS011;63050;47.514;18.920;2023-05-29T14:18:46;7.80;;;4.20;;
62535;SDS011;63050;47.514;18.920;2023-05-29T14:23:49;8.40;;;4.30;;
62535;SDS011;63050;47.514;18.920;2023-05-29T14:28:50;8.10;;;4.30;;
62535;SDS011;63050;47.514;18.920;2023-05-29T14:33:52;7.50;;;4.20;;
62535;SDS011;63050;47.514;18.920;2023-05-29T14:38:53;5.80;;;4.00;;
62535;SDS011;63050;47.514;18.920;2023-05-29T14:43:55;7.00;;;3.90;;
62535;SDS011;63050;47.514;18.920;2023-05-29T14:49:00;6.30;;;3.90;;
62535;SDS011;63050;47.514;18.920;2023-05-29T14:54:01;5.40;;;3.90;;
62535;SDS011;63050;47.514;18.920;2023-05-29T14:59:03;6.60;;;4.30;;
62535;SDS011;63050;47.514;18.920;2023-05-29T15:04:04;5.00;;;4.50;;
62535;SDS011;63050;47.514;18.920;2023-05-29T15:09:06;13.90;;;5.00;;
62535;SDS011;63050;47.514;18.920;2023-05-29T15:14:07;8.40;;;4.60;;
62535;SDS011;63050;47.514;18.920;2023-05-29T15:19:09;8.70;;;4.30;;
62535;SDS011;63050;47.514;18.920;2023-05-29T15:24:11;6.40;;;4.30;;
62535;SDS011;63050;47.514;18.920;2023-05-29T15:29:12;8.30;;;4.20;;
62535;SDS011;63050;47.514;18.920;2023-05-29T15:34:13;5.90;;;4.20;;
62535;SDS011;63050;47.514;18.920;2023-05-29T15:39:15;5.80;;;4.70;;
62535;SDS011;63050;47.514;18.920;2023-05-29T15:44:16;4.50;;;3.40;;
62535;SDS011;63050;47.514;18.920;2023-05-29T15:49:18;8.20;;;4.20;;
62535;SDS011;63050;47.514;18.920;2023-05-29T15:54:20;5.70;;;4.10;;
62535;SDS011;63050;47.514;18.920;2023-05-29T15:59:21;6.30;;;3.70;;
62535;SDS011;63050;47.514;18.920;2023-05-29T16:04:22;10.30;;;3.90;;
62535;SDS011;63050;47.514;18.920;2023-05-29T16:09:23;6.50;;;4.50;;
62535;SDS011;63050;47.514;18.920;2023-05-29T16:14:24;9.30;;;4.60;;
62535;SDS011;63050;47.514;18.920;2023-05-29T16:19:27;5.90;;;4.20;;
62535;SDS011;63050;47.514;18.920;2023-05-29T16:24:28;5.90;;;3.80;;
62535;SDS011;63050;47.514;18.920;2023-05-29T16:29:29;5.90;;;4.30;;
62535;SDS011;63050;47.514;18.920;2023-05-29T16:34:31;4.90;;;4.00;;
62535;SDS011;63050;47.514;18.920;2023-05-29T16:39:32;6.10;;;4.20;;
62535;SDS011;63050;47.514;18.920;2023-05-29T16:44:33;5.80;;;3.90;;
62535;SDS011;63050;47.514;18.920;2023-05-29T16:49:35;4.70;;;3.90;;
62535;SDS011;63050;47.514;18.920;2023-05-29T16:54:36;5.40;;;3.80;;
62535;SDS011;63050;47.514;18.920;2023-05-29T16:59:40;5.70;;;4.10;;
62535;SDS011;63050;47.514;18.920;2023-05-29T17:04:41;5.80;;;3.80;;
62535;SDS011;63050;47.514;18.920;2023-05-29T17:09:42;6.30;;;4.40;;
62535;SDS011;63050;47.514;18.920;2023-05-29T17:14:43;6.20;;;4.30;;
62535;SDS011;63050;47.514;18.920;2023-05-29T17:19:45;5.00;;;4.00;;
62535;SDS011;63050;47.514;18.920;2023-05-29T17:24:46;7.10;;;4.10;;
62535;SDS011;63050;47.514;18.920;2023-05-29T17:29:48;6.90;;;4.60;;
62535;SDS011;63050;47.514;18.920;2023-05-29T17:34:49;6.40;;;4.70;;
62535;SDS011;63050;47.514;18.920;2023-05-29T17:39:53;5.90;;;4.30;;
62535;SDS011;63050;47.514;18.920;2023-05-29T17:44:54;6.40;;;4.30;;
62535;SDS011;63050;47.514;18.920;2023-05-29T17:49:55;7.90;;;4.20;;
62535;SDS011;63050;47.514;18.920;2023-05-29T17:54:57;6.40;;;4.50;;
62535;SDS011;63050;47.514;18.920;2023-05-29T17:59:58;6.70;;;4.30;;
62535;SDS011;63050;47.514;18.920;2023-05-29T18:05:00;6.70;;;4.40;;
62535;SDS011;63050;47.514;18.920;2023-05-29T18:10:02;8.20;;;4.60;;
62535;SDS011;63050;47.514;18.920;2023-05-29T18:15:04;5.00;;;4.10;;
62535;SDS011;63050;47.514;18.920;2023-05-29T18:20:06;7.40;;;4.70;;
62535;SDS011;63050;47.514;18.920;2023-05-29T18:25:08;7.20;;;5.70;;
62535;SDS011;63050;47.514;18.920;2023-05-29T18:30:11;6.80;;;4.60;;
62535;SDS011;63050;47.514;18.920;2023-05-29T18:35:13;7.10;;;4.20;;
62535;SDS011;63050;47.514;18.920;2023-05-29T18:40:14;8.30;;;4.60;;
62535;SDS011;63050;47.514;18.920;2023-05-29T18:45:17;11.50;;;5.20;;
62535;SDS011;63050;47.514;18.920;2023-05-29T18:50:19;12.70;;;4.60;;
62535;SDS011;63050;47.514;18.920;2023-05-29T18:55:20;8.80;;;4.20;;
62535;SDS011;63050;47.514;18.920;2023-05-29T19:00:22;7.10;;;4.20;;
62535;SDS011;63050;47.514;18.920;2023-05-29T19:05:24;6.60;;;4.30;;
62535;SDS011;63050;47.514;18.920;2023-05-29T19:10:26;6.10;;;4.10;;
62535;SDS011;63050;47.514;18.920;2023-05-29T19:15:27;9.20;;;4.70;;
62535;SDS011;63050;47.514;18.920;2023-05-29T19:20:29;7.00;;;4.60;;
62535;SDS011;63050;47.514;18.920;2023-05-29T19:25:30;7.70;;;4.60;;
62535;SDS011;63050;47.514;18.920;2023-05-29T19:30:32;8.70;;;4.90;;
62535;SDS011;63050;47.514;18.920;2023-05-29T19:35:33;6.30;;;4.40;;
62535;SDS011;63050;47.514;18.920;2023-05-29T19:40:37;6.00;;;4.50;;
62535;SDS011;63050;47.514;18.920;2023-05-29T19:45:38;5.40;;;4.00;;
62535;SDS011;63050;47.514;18.920;2023-05-29T19:50:40;6.60;;;4.60;;
62535;SDS011;63050;47.514;18.920;2023-05-29T19:55:42;5.30;;;4.30;;
62535;SDS011;63050;47.514;18.920;2023-05-29T20:00:44;8.30;;;4.50;;
62535;SDS011;63050;47.514;18.920;2023-05-29T20:05:45;8.20;;;4.50;;
62535;SDS011;63050;47.514;18.920;2023-05-29T20:10:46;7.50;;;4.90;;
62535;SDS011;63050;47.514;18.920;2023-05-29T20:15:48;5.40;;;4.30;;
62535;SDS011;63050;47.514;18.920;2023-05-29T20:20:49;8.00;;;4.80;;
62535;SDS011;63050;47.514;18.920;2023-05-29T20:25:51;7.20;;;4.90;;
62535;SDS011;63050;47.514;18.920;2023-05-29T20:30:52;5.50;;;3.90;;
62535;SDS011;63050;47.514;18.920;2023-05-29T20:35:54;7.10;;;4.30;;
62535;SDS011;63050;47.514;18.920;2023-05-29T20:40:59;6.20;;;4.80;;
62535;SDS011;63050;47.514;18.920;2023-05-29T20:46:01;6.00;;;4.60;;
62535;SDS011;63050;47.514;18.920;2023-05-29T20:51:04;6.80;;;5.30;;
62535;SDS011;63050;47.514;18.920;2023-05-29T20:56:05;6.90;;;5.10;;
62535;SDS011;63050;47.514;18.920;2023-05-29T21:01:07;6.70;;;4.60;;
62535;SDS011;63050;47.514;18.920;2023-05-29T21:06:10;5.70;;;4.50;;
62535;SDS011;63050;47.514;18.920;2023-05-29T21:11:11;6.60;;;4.60;;
62535;SDS011;63050;47.514;18.920;2023-05-29T21:16:12;6.00;;;4.80;;
62535;SDS011;63050;47.514;18.920;2023-05-29T21:21:14;7.00;;;4.40;;
62535;SDS011;63050;47.514;18.920;2023-05-29T21:26:16;5.60;;;4.50;;
62535;SDS011;63050;47.514;18.920;2023-05-29T21:31:17;7.40;;;4.40;;
62535;SDS011;63050;47.514;18.920;2023-05-29T21:36:19;7.30;;;5.10;;
62535;SDS011;63050;47.514;18.920;2023-05-29T21:41:21;10.00;;;5.10;;
62535;SDS011;63050;47.514;18.920;2023-05-29T21:46:23;6.40;;;4.10;;
62535;SDS011;63050;47.514;18.920;2023-05-29T21:51:25;10.70;;;5.20;;
62535;SDS011;63050;47.514;18.920;2023-05-29T21:56:26;5.70;;;4.60;;
62535;SDS011;63050;47.514;18.920;2023-05-29T22:01:30;6.70;;;4.90;;
62535;SDS011;63050;47.514;18.920;2023-05-29T22:06:32;7.20;;;4.50;;
62535;SDS011;63050;47.514;18.920;2023-05-29T22:11:34;10.00;;;5.20;;
62535;SDS011;63050;47.514;18.920;2023-05-29T22:16:38;9.30;;;5.40;;
62535;SDS011;63050;47.514;18.920;2023-05-29T22:21:40;5.60;;;4.50;;
62535;SDS011;63050;47.514;18.920;2023-05-29T22:26:44;5.60;;;4.70;;
62535;SDS011;63050;47.514;18.920;2023-05-29T22:31:46;8.50;;;5.10;;
62535;SDS011;63050;47.514;18.920;2023-05-29T22:36:49;7.20;;;4.60;;
62535;SDS011;63050;47.514;18.920;2023-05-29T22:41:51;7.10;;;4.50;;
62535;SDS011;63050;47.514;18.920;2023-05-29T22:46:54;7.00;;;4.80;;
62535;SDS011;63050;47.514;18.920;2023-05-29T22:51:57;7.30;;;4.70;;
62535;SDS011;63050;47.514;18.920;2023-05-29T22:56:59;8.80;;;5.40;;
62535;SDS011;63050;47.514;18.920;2023-05-29T23:02:00;6.80;;;5.00;;
62535;SDS011;63050;47.514;18.920;2023-05-29T23:07:02;6.30;;;4.70;;
62535;SDS011;63050;47.514;18.920;2023-05-29T23:12:05;7.80;;;4.70;;
62535;SDS011;63050;47.514;18.920;2023-05-29T23:17:10;7.30;;;4.90;;
62535;SDS011;63050;47.514;18.920;2023-05-29T23:22:12;6.80;;;5.10;;
62535;SDS011;63050;47.514;18.920;2023-05-29T23:27:14;6.70;;;4.30;;
62535;SDS011;63050;47.514;18.920;2023-05-29T23:32:15;6.20;;;5.00;;
62535;SDS011;63050;47.514;18.920;2023-05-29T23:37:17;7.30;;;5.40;;
62535;SDS011;63050;47.514;18.920;2023-05-29T23:42:18;5.80;;;5.10;;
62535;SDS011;63050;47.514;18.920;2023-05-29T23:47:21;7.40;;;5.50;;
62535;SDS011;63050;47.514;18.920;2023-05-29T23:52:22;7.90;;;5.40;;
62535;SDS011;63050;47.514;18.920;2023-05-29T23:57:24;8.60;;;5.20;;
